Time;durP1;ratioP1;P1;durP2;ratioP2;P2;SDS_P1;SDS_P2;PMS_P1;PMS_P2;Temp;Humidity;BMP_temperature;BMP_pressure;BME280_temperature;BME280_humidity;BME280_pressure;Samples;Min_cycle;Max_cycle;Signal;HPM_P1;HPM_P2
2022/10/02 00:01:55;;;;;;;;;;;;;;;;;;5058794;28;19970;-89
2022/10/02 00:04:21;;;;;;;;;;;;;;;;;;5058425;28;19923;-89
2022/10/02 00:06:47;;;;;;;;;;;;;;;;;;5058439;28;20025;-89
2022/10/02 00:09:23;;;;;;;;;;;;;;;;;;5058810;28;20403;-88
2022/10/02 00:11:49;;;;;;;;;;;;;;;;;;5058398;28;19917;-89
2022/10/02 00:14:16;;;;;;;;;;;;;;;;;;5058391;28;19916;-88
2022/10/02 00:16:42;;;;;;;;;;;;;;;;;;5058047;28;20233;-89
2022/10/02 00:19:08;;;;;;;;;;;;;;;;;;5058506;28;19917;-88
2022/10/02 00:21:37;;;;;;;;;;;;;;;;;;5058320;28;19919;-89
2022/10/02 00:24:03;;;;;;;;;;;;;;;;;;5075806;28;19958;-88
2022/10/02 00:26:35;;;;;;;;;;;;;;;;;;5057879;28;20046;-90
2022/10/02 00:29:08;;;;;;;;;;;;;;;;;;5076106;28;20325;-92
2022/10/02 00:31:40;;;;;;;;;;;;;;;;;;5058018;28;19921;-90
2022/10/02 00:34:05;;;;;;;;;;;;;;;;;;5075865;28;20318;-89
2022/10/02 00:36:34;;;;;;;;;;;;;;;;;;5076151;28;19966;-91
2022/10/02 00:39:01;;;;;;;;;;;;;;;;;;5058531;28;19989;-88
2022/10/02 00:41:26;;;;;;;;;;;;;;;;;;5058334;28;19924;-90
2022/10/02 00:44:10;;;;;;;;;;;;;;;;;;5075807;28;19916;-88
2022/10/02 00:46:36;;;;;;;;;;;;;;;;;;5057817;28;19917;-89
2022/10/02 00:49:24;;;;;;;;;;;;;;;;;;5075417;28;20235;-89
2022/10/02 00:52:08;;;;;;;;;;;;;;;;;;5029473;28;20218;-88
2022/10/02 00:54:52;;;;;;;;;;;;;;;;;;5075398;28;20314;-89
2022/10/02 00:57:17;;;;;;;;;;;;;;;;;;5057664;28;20003;-88
2022/10/02 00:59:49;;;;;;;;;;;;;;;;;;5057967;28;20274;-89
2022/10/02 01:02:29;;;;;;;;;;;;;;;;;;5058203;28;19917;-89
2022/10/02 01:04:54;;;;;;;;;;;;;;;;;;5075479;28;20250;-88
2022/10/02 01:07:20;;;;;;;;;;;;;;;;;;5040817;28;20011;-90
2022/10/02 01:09:46;;;;;;;;;;;;;;;;;;5057285;28;20235;-90
2022/10/02 01:12:11;;;;;;;;;;;;;;;;;;5057485;28;19917;-89
2022/10/02 01:14:37;;;;;;;;;;;;;;;;;;5041162;28;19924;-88
2022/10/02 01:17:03;;;;;;;;;;;;;;;;;;5075222;28;19924;-88
2022/10/02 01:19:31;;;;;;;;;;;;;;;;;;5075351;28;19960;-90
2022/10/02 01:22:16;;;;;;;;;;;;;;;;;;5074259;28;19912;-89
2022/10/02 01:24:46;;;;;;;;;;;;;;;;;;5074619;28;19916;-89
2022/10/02 01:27:11;;;;;;;;;;;;;;;;;;5058957;28;19995;-91
2022/10/02 01:29:36;;;;;;;;;;;;;;;;;;5057486;28;20387;-90
2022/10/02 01:32:02;;;;;;;;;;;;;;;;;;5075607;28;20257;-88
2022/10/02 01:34:27;;;;;;;;;;;;;;;;;;5058422;28;19916;-89
2022/10/02 01:36:55;;;;;;;;;;;;;;;;;;5041088;28;19917;-89
2022/10/02 01:39:21;;;;;;;;;;;;;;;;;;5057865;28;19916;-90
2022/10/02 01:41:46;;;;;;;;;;;;;;;;;;5058075;28;19922;-90
2022/10/02 01:44:12;;;;;;;;;;;;;;;;;;5057658;28;19939;-90
2022/10/02 01:46:52;;;;;;;;;;;;;;;;;;5075472;28;19976;-89
2022/10/02 01:49:18;;;;;;;;;;;;;;;;;;5058271;28;19917;-90
2022/10/02 01:51:46;;;;;;;;;;;;;;;;;;5075118;28;20249;-91
2022/10/02 01:54:14;;;;;;;;;;;;;;;;;;5075496;28;19952;-89
2022/10/02 01:56:39;;;;;;;;;;;;;;;;;;5075258;28;20003;-89
2022/10/02 01:59:11;;;;;;;;;;;;;;;;;;5075427;28;19963;-91
2022/10/02 02:01:36;;;;;;;;;;;;;;;;;;5077347;28;19916;-90
2022/10/02 02:04:03;;;;;;;;;;;;;;;;;;5064724;28;19973;-90
2022/10/02 02:06:47;;;;;;;;;;;;;;;;;;5076585;28;19928;-90
2022/10/02 02:09:16;;;;;;;;;;;;;;;;;;5076809;28;19916;-89
2022/10/02 02:11:44;;;;;;;;;;;;;;;;;;5075335;28;19916;-93
2022/10/02 02:14:09;;;;;;;;;;;;;;;;;;5063978;28;19916;-88
2022/10/02 02:16:36;;;;;;;;;;;;;;;;;;5061233;28;20011;-91
2022/10/02 02:19:28;;;;;;;;;;;;;;;;;;5061337;28;19943;-89
2022/10/02 02:22:00;;;;;;;;;;;;;;;;;;5038512;28;19916;-88
2022/10/02 02:24:46;;;;;;;;;;;;;;;;;;5062462;28;19916;-89
2022/10/02 02:27:12;;;;;;;;;;;;;;;;;;5064437;28;19921;-91
2022/10/02 02:29:38;;;;;;;;;;;;;;;;;;5066459;28;19916;-89
2022/10/02 02:32:04;;;;;;;;;;;;;;;;;;5091720;28;19916;-90
2022/10/02 02:34:53;;;;;;;;;;;;;;;;;;5072051;28;19983;-91
2022/10/02 02:37:19;;;;;;;;;;;;;;;;;;5066959;28;20245;-89
2022/10/02 02:39:51;;;;;;;;;;;;;;;;;;5070458;28;19939;-91
2022/10/02 02:42:18;;;;;;;;;;;;;;;;;;5074923;28;19916;-91
2022/10/02 02:44:46;;;;;;;;;;;;;;;;;;5073795;28;19935;-88
2022/10/02 02:47:14;;;;;;;;;;;;;;;;;;5094578;28;19972;-90
2022/10/02 02:49:39;;;;;;;;;;;;;;;;;;5094901;28;19923;-90
2022/10/02 02:52:07;;;;;;;;;;;;;;;;;;5077258;28;20010;-91
2022/10/02 02:54:36;;;;;;;;;;;;;;;;;;5076682;28;20334;-90
2022/10/02 02:57:03;;;;;;;;;;;;;;;;;;5070157;28;20007;-89
2022/10/02 02:59:30;;;;;;;;;;;;;;;;;;5077181;28;19970;-90
2022/10/02 03:01:55;;;;;;;;;;;;;;;;;;5076399;28;19923;-90
2022/10/02 03:04:22;;;;;;;;;;;;;;;;;;5060151;28;19916;-90
2022/10/02 03:06:48;;;;;;;;;;;;;;;;;;5060108;28;19916;-89
2022/10/02 03:09:14;;;;;;;;;;;;;;;;;;5077101;28;19917;-93
2022/10/02 03:11:48;;;;;;;;;;;;;;;;;;5076390;28;19917;-89
2022/10/02 03:14:20;;;;;;;;;;;;;;;;;;5077334;28;20409;-88
2022/10/02 03:17:03;;;;;;;;;;;;;;;;;;5077499;28;19996;-89
2022/10/02 03:19:35;;;;;;;;;;;;;;;;;;5077336;28;19916;-90
2022/10/02 03:22:11;;;;;;;;;;;;;;;;;;5076065;28;20306;-88
2022/10/02 03:24:37;;;;;;;;;;;;;;;;;;5076407;28;20014;-89
2022/10/02 03:27:04;;;;;;;;;;;;;;;;;;5076280;28;19964;-89
2022/10/02 03:29:37;;;;;;;;;;;;;;;;;;5076333;28;19917;-89
2022/10/02 03:32:03;;;;;;;;;;;;;;;;;;5076078;28;19916;-87
2022/10/02 03:34:28;;;;;;;;;;;;;;;;;;5059580;28;20018;-86
2022/10/02 03:36:54;;;;;;;;;;;;;;;;;;5059233;28;20357;-94
2022/10/02 03:39:19;;;;;;;;;;;;;;;;;;5078465;28;19916;-91
2022/10/02 03:41:45;;;;;;;;;;;;;;;;;;5059154;28;20387;-89
2022/10/02 03:44:10;;;;;;;;;;;;;;;;;;5059751;28;20404;-92
2022/10/02 03:46:36;;;;;;;;;;;;;;;;;;5075920;28;19920;-91
2022/10/02 03:49:01;;;;;;;;;;;;;;;;;;5075823;28;20258;-88
2022/10/02 03:51:26;;;;;;;;;;;;;;;;;;5059169;28;19916;-90
2022/10/02 03:53:52;;;;;;;;;;;;;;;;;;5076612;28;19917;-88
2022/10/02 03:56:37;;;;;;;;;;;;;;;;;;5075327;28;20014;-93
2022/10/02 03:59:04;;;;;;;;;;;;;;;;;;5076496;28;19969;-90
2022/10/02 04:01:31;;;;;;;;;;;;;;;;;;5059977;28;19920;-92
2022/10/02 04:03:58;;;;;;;;;;;;;;;;;;5060957;28;19924;-89
2022/10/02 04:06:35;;;;;;;;;;;;;;;;;;5058662;28;19917;-93
2022/10/02 04:09:05;;;;;;;;;;;;;;;;;;5076883;28;19952;-90
2022/10/02 04:11:41;;;;;;;;;;;;;;;;;;5076639;28;19920;-92
2022/10/02 04:14:15;;;;;;;;;;;;;;;;;;5041953;28;19917;-90
2022/10/02 04:16:46;;;;;;;;;;;;;;;;;;5058172;28;19917;-90
2022/10/02 04:19:17;;;;;;;;;;;;;;;;;;5076233;28;19916;-93
2022/10/02 04:21:49;;;;;;;;;;;;;;;;;;5058154;28;20310;-89
2022/10/02 04:24:20;;;;;;;;;;;;;;;;;;5058044;28;19992;-89
2022/10/02 04:26:49;;;;;;;;;;;;;;;;;;5057893;28;19995;-90
2022/10/02 04:29:19;;;;;;;;;;;;;;;;;;5058448;28;19923;-87
2022/10/02 04:31:45;;;;;;;;;;;;;;;;;;5058210;28;19923;-89
2022/10/02 04:34:11;;;;;;;;;;;;;;;;;;5057718;28;19912;-87
2022/10/02 04:36:43;;;;;;;;;;;;;;;;;;5057712;28;20007;-87
2022/10/02 04:39:12;;;;;;;;;;;;;;;;;;5074365;28;20326;-90
2022/10/02 04:41:38;;;;;;;;;;;;;;;;;;5057523;28;19981;-89
2022/10/02 04:44:12;;;;;;;;;;;;;;;;;;5075264;28;19920;-90
2022/10/02 04:46:41;;;;;;;;;;;;;;;;;;5057557;28;19958;-89
2022/10/02 04:49:24;;;;;;;;;;;;;;;;;;5057601;28;19924;-88
2022/10/02 04:51:57;;;;;;;;;;;;;;;;;;5058077;28;19916;-89
2022/10/02 04:54:38;;;;;;;;;;;;;;;;;;5057622;28;19916;-90
2022/10/02 04:57:03;;;;;;;;;;;;;;;;;;5057528;28;19921;-88
2022/10/02 04:59:28;;;;;;;;;;;;;;;;;;5075626;28;19916;-90
2022/10/02 05:01:54;;;;;;;;;;;;;;;;;;5058071;28;19923;-88
2022/10/02 05:04:36;;;;;;;;;;;;;;;;;;5057709;28;19916;-87
2022/10/02 05:07:14;;;;;;;;;;;;;;;;;;5057783;28;19924;-87
2022/10/02 05:09:54;;;;;;;;;;;;;;;;;;5057531;28;19917;-90
2022/10/02 05:12:26;;;;;;;;;;;;;;;;;;5058137;28;20003;-90
2022/10/02 05:15:10;;;;;;;;;;;;;;;;;;5057785;28;19980;-87
2022/10/02 05:17:56;;;;;;;;;;;;;;;;;;5074987;28;19939;-92
2022/10/02 05:20:27;;;;;;;;;;;;;;;;;;5075902;28;19923;-91
2022/10/02 05:22:59;;;;;;;;;;;;;;;;;;5075815;28;19920;-88
2022/10/02 05:25:34;;;;;;;;;;;;;;;;;;5057721;28;20226;-91
2022/10/02 05:28:12;;;;;;;;;;;;;;;;;;5076385;28;19939;-90
2022/10/02 05:30:42;;;;;;;;;;;;;;;;;;5056143;28;19916;-91
2022/10/02 05:33:10;;;;;;;;;;;;;;;;;;5074360;28;19916;-87
2022/10/02 05:35:44;;;;;;;;;;;;;;;;;;5075445;28;19939;-88
2022/10/02 05:38:48;;;;;;;;;;;;;;;;;;5058001;28;19920;-93
2022/10/02 05:41:13;;;;;;;;;;;;;;;;;;4993813;28;19918;-91
2022/10/02 05:43:40;;;;;;;;;;;;;;;;;;4993457;28;20317;-88
2022/10/02 05:46:09;;;;;;;;;;;;;;;;;;5010290;28;19917;-88
2022/10/02 05:48:40;;;;;;;;;;;;;;;;;;5060725;28;19924;-87
2022/10/02 05:51:26;;;;;;;;;;;;;;;;;;5091392;28;20030;-88
2022/10/02 05:53:56;;;;;;;;;;;;;;;;;;5047700;28;20269;-88
2022/10/02 05:56:23;;;;;;;;;;;;;;;;;;5073991;28;19981;-88
2022/10/02 05:58:56;;;;;;;;;;;;;;;;;;5086110;28;20291;-91
2022/10/02 06:01:29;;;;;;;;;;;;;;;;;;5074813;28;19917;-89
2022/10/02 06:04:02;;;;;;;;;;;;;;;;;;5073974;28;19935;-89
2022/10/02 06:06:32;;;;;;;;;;;;;;;;;;5074599;28;20012;-90
2022/10/02 06:09:01;;;;;;;;;;;;;;;;;;5094689;28;19912;-89
2022/10/02 06:11:38;;;;;;;;;;;;;;;;;;5091017;28;19964;-89
2022/10/02 06:14:06;;;;;;;;;;;;;;;;;;5090806;28;19923;-90
2022/10/02 06:16:33;;;;;;;;;;;;;;;;;;5074995;28;19916;-90
2022/10/02 06:19:01;;;;;;;;;;;;;;;;;;5075210;28;20008;-90
2022/10/02 06:21:44;;;;;;;;;;;;;;;;;;5074128;28;20007;-86
2022/10/02 06:24:10;;;;;;;;;;;;;;;;;;5074815;28;19939;-92
2022/10/02 06:26:35;;;;;;;;;;;;;;;;;;5090860;28;20532;-91
2022/10/02 06:29:15;;;;;;;;;;;;;;;;;;5075258;28;19917;-89
2022/10/02 06:31:53;;;;;;;;;;;;;;;;;;5090675;28;19916;-93
2022/10/02 06:34:20;;;;;;;;;;;;;;;;;;5075354;28;19923;-88
2022/10/02 06:37:04;;;;;;;;;;;;;;;;;;5090274;28;19997;-90
2022/10/02 06:39:48;;;;;;;;;;;;;;;;;;5062872;28;20238;-92
2022/10/02 06:42:32;;;;;;;;;;;;;;;;;;5055446;28;19956;-92
2022/10/02 06:45:03;;;;;;;;;;;;;;;;;;5054309;28;19944;-87
2022/10/02 06:47:41;;;;;;;;;;;;;;;;;;5054630;28;20254;-91
2022/10/02 06:50:18;;;;;;;;;;;;;;;;;;5057071;28;19919;-90
2022/10/02 06:52:49;;;;;;;;;;;;;;;;;;5057879;28;19940;-90
2022/10/02 06:55:18;;;;;;;;;;;;;;;;;;5057063;28;19917;-88
2022/10/02 06:58:02;;;;;;;;;;;;;;;;;;5070313;28;20340;-92
2022/10/02 07:00:28;;;;;;;;;;;;;;;;;;5100234;28;20355;-88
2022/10/02 07:03:03;;;;;;;;;;;;;;;;;;5081789;28;20002;-91
2022/10/02 07:05:37;;;;;;;;;;;;;;;;;;5082002;28;19916;-91
2022/10/02 07:08:21;;;;;;;;;;;;;;;;;;5099859;28;20050;-89
2022/10/02 07:11:02;;;;;;;;;;;;;;;;;;5099861;28;19916;-89
2022/10/02 07:13:34;;;;;;;;;;;;;;;;;;5081499;28;19916;-90
2022/10/02 07:16:06;;;;;;;;;;;;;;;;;;5099104;28;20265;-90
2022/10/02 07:18:34;;;;;;;;;;;;;;;;;;5099573;28;19916;-87
2022/10/02 07:21:02;;;;;;;;;;;;;;;;;;5099263;28;19961;-91
2022/10/02 07:23:31;;;;;;;;;;;;;;;;;;5081524;28;19997;-88
2022/10/02 07:25:57;;;;;;;;;;;;;;;;;;5081359;28;19916;-89
2022/10/02 07:28:32;;;;;;;;;;;;;;;;;;5099809;28;19923;-90
2022/10/02 07:31:05;;;;;;;;;;;;;;;;;;5098208;28;19979;-93
2022/10/02 07:33:52;;;;;;;;;;;;;;;;;;5097825;28;19916;-88
2022/10/02 07:36:24;;;;;;;;;;;;;;;;;;5080547;28;20384;-90
2022/10/02 07:39:10;;;;;;;;;;;;;;;;;;5097731;28;20333;-89
2022/10/02 07:41:41;;;;;;;;;;;;;;;;;;5073553;28;19928;-88
2022/10/02 07:44:19;;;;;;;;;;;;;;;;;;5098320;28;19924;-89
2022/10/02 07:46:51;;;;;;;;;;;;;;;;;;5080410;28;19926;-88
2022/10/02 07:49:16;;;;;;;;;;;;;;;;;;5098567;28;19976;-88
2022/10/02 07:51:52;;;;;;;;;;;;;;;;;;5080403;28;19955;-89
2022/10/02 07:54:27;;;;;;;;;;;;;;;;;;5080323;28;20065;-92
2022/10/02 07:56:52;;;;;;;;;;;;;;;;;;5080786;28;19923;-91
2022/10/02 07:59:18;;;;;;;;;;;;;;;;;;5080915;28;19920;-92
2022/10/02 08:01:43;;;;;;;;;;;;;;;;;;5096820;28;19926;-89
2022/10/02 08:04:09;;;;;;;;;;;;;;;;;;5098095;28;19916;-89
2022/10/02 08:06:35;;;;;;;;;;;;;;;;;;5068271;28;20312;-93
2022/10/02 08:09:06;;;;;;;;;;;;;;;;;;5063495;28;19916;-88
2022/10/02 08:11:32;;;;;;;;;;;;;;;;;;5079734;28;19959;-90
2022/10/02 08:14:02;;;;;;;;;;;;;;;;;;5062794;28;19923;-89
2022/10/02 08:16:32;;;;;;;;;;;;;;;;;;5096858;28;19926;-87
2022/10/02 08:18:59;;;;;;;;;;;;;;;;;;5081901;28;19972;-87
2022/10/02 08:21:24;;;;;;;;;;;;;;;;;;5063141;28;19916;-90
2022/10/02 08:23:52;;;;;;;;;;;;;;;;;;5096350;28;20004;-90
2022/10/02 08:26:21;;;;;;;;;;;;;;;;;;5063710;28;19969;-88
2022/10/02 08:28:52;;;;;;;;;;;;;;;;;;5078519;28;19912;-89
2022/10/02 08:31:18;;;;;;;;;;;;;;;;;;5061333;28;19923;-87
2022/10/02 08:33:47;;;;;;;;;;;;;;;;;;5098190;28;19912;-87
2022/10/02 08:36:19;;;;;;;;;;;;;;;;;;5079408;28;20016;-86
2022/10/02 08:38:45;;;;;;;;;;;;;;;;;;5078978;28;19916;-90
2022/10/02 08:41:20;;;;;;;;;;;;;;;;;;5076134;28;20439;-82
2022/10/02 08:43:49;;;;;;;;;;;;;;;;;;5075418;28;19916;-84
2022/10/02 08:46:27;;;;;;;;;;;;;;;;;;5075556;28;19916;-82
2022/10/02 08:48:57;;;;;;;;;;;;;;;;;;5093478;28;19916;-82
2022/10/02 08:51:32;;;;;;;;;;;;;;;;;;5093635;28;20233;-80
2022/10/02 08:54:00;;;;;;;;;;;;;;;;;;5093905;28;19955;-82
2022/10/02 08:56:34;;;;;;;;;;;;;;;;;;5077066;28;19923;-82
2022/10/02 08:59:09;;;;;;;;;;;;;;;;;;5094996;28;19920;-83
2022/10/02 09:01:39;;;;;;;;;;;;;;;;;;5094074;28;20225;-81
2022/10/02 09:04:27;;;;;;;;;;;;;;;;;;5094722;28;19970;-80
2022/10/02 09:07:03;;;;;;;;;;;;;;;;;;5094515;28;19948;-81
2022/10/02 09:09:32;;;;;;;;;;;;;;;;;;5077946;28;19923;-79
2022/10/02 09:12:21;;;;;;;;;;;;;;;;;;5093903;28;19922;-80
2022/10/02 09:14:57;;;;;;;;;;;;;;;;;;5065754;28;20003;-83
2022/10/02 09:17:39;;;;;;;;;;;;;;;;;;5094866;28;20018;-81
2022/10/02 09:20:19;;;;;;;;;;;;;;;;;;5094507;28;19916;-83
2022/10/02 09:22:51;;;;;;;;;;;;;;;;;;5059880;28;19920;-80
2022/10/02 09:25:29;;;;;;;;;;;;;;;;;;5094522;28;19916;-82
2022/10/02 09:28:06;;;;;;;;;;;;;;;;;;5094837;28;19916;-84
2022/10/02 09:30:34;;;;;;;;;;;;;;;;;;5075702;28;19923;-84
2022/10/02 09:33:16;;;;;;;;;;;;;;;;;;5092122;28;19916;-83
2022/10/02 09:35:45;;;;;;;;;;;;;;;;;;5059691;28;19923;-84
2022/10/02 09:38:20;;;;;;;;;;;;;;;;;;5094701;28;19917;-83
2022/10/02 09:41:03;;;;;;;;;;;;;;;;;;5094317;28;19923;-84
2022/10/02 09:43:30;;;;;;;;;;;;;;;;;;5093211;28;20007;-85
2022/10/02 09:45:55;;;;;;;;;;;;;;;;;;5076404;28;19923;-83
2022/10/02 09:48:44;;;;;;;;;;;;;;;;;;5075585;28;19916;-83
2022/10/02 09:51:15;;;;;;;;;;;;;;;;;;5076820;28;20222;-85
2022/10/02 09:53:46;;;;;;;;;;;;;;;;;;5059429;28;19916;-84
2022/10/02 09:56:20;;;;;;;;;;;;;;;;;;5076344;28;19917;-83
2022/10/02 09:59:20;;;;;;;;;;;;;;;;;;5075929;28;20340;-85
2022/10/02 10:01:54;;;;;;;;;;;;;;;;;;5032100;28;19928;-83
2022/10/02 10:04:20;;;;;;;;;;;;;;;;;;5084951;28;19916;-83
2022/10/02 10:06:57;;;;;;;;;;;;;;;;;;5076029;28;19994;-84
2022/10/02 10:09:23;;;;;;;;;;;;;;;;;;5094400;28;19916;-85
2022/10/02 10:11:56;;;;;;;;;;;;;;;;;;5093976;28;19912;-84
2022/10/02 10:14:33;;;;;;;;;;;;;;;;;;5094091;28;19992;-82
2022/10/02 10:17:12;;;;;;;;;;;;;;;;;;5059225;28;19923;-84
2022/10/02 10:19:44;;;;;;;;;;;;;;;;;;5094266;28;19924;-84
2022/10/02 10:22:12;;;;;;;;;;;;;;;;;;5076225;28;19999;-83
2022/10/02 10:24:38;;;;;;;;;;;;;;;;;;5079172;28;19916;-84
2022/10/02 10:27:24;;;;;;;;;;;;;;;;;;5097988;28;20020;-84
2022/10/02 10:30:08;;;;;;;;;;;;;;;;;;5097862;28;20261;-84
2022/10/02 10:32:40;;;;;;;;;;;;;;;;;;5096860;28;19912;-85
2022/10/02 10:35:08;;;;;;;;;;;;;;;;;;5097487;28;19916;-85
2022/10/02 10:40:37;;;;;;;;;;;;;;;;;;5097554;28;20037;-84
2022/10/02 10:43:19;;;;;;;;;;;;;;;;;;5097759;28;19954;-83
2022/10/02 10:45:47;;;;;;;;;;;;;;;;;;5097502;28;19916;-83
2022/10/02 10:48:19;;;;;;;;;;;;;;;;;;5097178;28;19916;-85
2022/10/02 10:50:48;;;;;;;;;;;;;;;;;;5078302;28;19919;-84
2022/10/02 10:53:26;;;;;;;;;;;;;;;;;;5097246;28;20325;-82
2022/10/02 10:55:52;;;;;;;;;;;;;;;;;;5078328;28;19984;-85
2022/10/02 10:58:20;;;;;;;;;;;;;;;;;;5096163;28;19959;-83
2022/10/02 11:00:51;;;;;;;;;;;;;;;;;;5097339;28;20372;-83
2022/10/02 11:03:26;;;;;;;;;;;;;;;;;;5096861;28;19958;-83
2022/10/02 11:06:01;;;;;;;;;;;;;;;;;;5097218;28;19923;-84
2022/10/02 11:08:45;;;;;;;;;;;;;;;;;;5079632;28;20013;-83
2022/10/02 11:11:30;;;;;;;;;;;;;;;;;;5097834;28;20336;-85
2022/10/02 11:14:18;;;;;;;;;;;;;;;;;;5096894;28;20357;-84
2022/10/02 11:17:02;;;;;;;;;;;;;;;;;;5078498;28;19921;-84
2022/10/02 11:19:32;;;;;;;;;;;;;;;;;;5095807;28;19951;-84
2022/10/02 11:22:01;;;;;;;;;;;;;;;;;;5079027;28;19916;-81
2022/10/02 11:24:30;;;;;;;;;;;;;;;;;;5097131;28;19916;-83
2022/10/02 11:26:58;;;;;;;;;;;;;;;;;;5096709;28;19917;-82
2022/10/02 11:29:34;;;;;;;;;;;;;;;;;;5096651;28;19920;-82
2022/10/02 11:32:18;;;;;;;;;;;;;;;;;;5061263;28;20006;-82
2022/10/02 11:34:59;;;;;;;;;;;;;;;;;;5061886;28;19916;-82
2022/10/02 11:37:30;;;;;;;;;;;;;;;;;;5078541;28;19916;-82
2022/10/02 11:40:14;;;;;;;;;;;;;;;;;;5097109;28;19916;-81
2022/10/02 11:42:40;;;;;;;;;;;;;;;;;;5096303;28;19916;-83
2022/10/02 11:45:24;;;;;;;;;;;;;;;;;;5096538;28;20007;-84
2022/10/02 11:47:50;;;;;;;;;;;;;;;;;;5095200;28;19916;-83
2022/10/02 11:50:22;;;;;;;;;;;;;;;;;;5096476;28;19923;-83
2022/10/02 11:52:53;;;;;;;;;;;;;;;;;;5096152;28;19920;-82
2022/10/02 11:55:28;;;;;;;;;;;;;;;;;;5078385;28;20376;-82
2022/10/02 11:58:12;;;;;;;;;;;;;;;;;;5070509;28;19924;-82
2022/10/02 12:00:56;;;;;;;;;;;;;;;;;;5075552;28;20008;-84
2022/10/02 12:03:28;;;;;;;;;;;;;;;;;;5075864;28;20019;-83
2022/10/02 12:06:05;;;;;;;;;;;;;;;;;;5058470;28;19923;-82
2022/10/02 12:08:49;;;;;;;;;;;;;;;;;;5057788;28;19920;-82
2022/10/02 12:11:14;;;;;;;;;;;;;;;;;;5075530;28;19923;-82
2022/10/02 12:14:00;;;;;;;;;;;;;;;;;;5075579;28;20310;-82
2022/10/02 12:16:40;;;;;;;;;;;;;;;;;;5057504;28;20263;-83
2022/10/02 12:19:14;;;;;;;;;;;;;;;;;;5075364;28;19917;-82
2022/10/02 12:27:17;;;;;;;;;;;;;;;;;;5077314;28;20329;-82
2022/10/02 12:29:51;;;;;;;;;;;;;;;;;;5082226;28;19916;-82
2022/10/02 12:32:22;;;;;;;;;;;;;;;;;;5075521;28;19916;-84
2022/10/02 12:35:06;;;;;;;;;;;;;;;;;;5057468;28;19920;-85
2022/10/02 12:37:35;;;;;;;;;;;;;;;;;;5073902;28;19917;-82
2022/10/02 12:40:06;;;;;;;;;;;;;;;;;;5075132;28;19979;-83
2022/10/02 12:42:39;;;;;;;;;;;;;;;;;;5075182;28;19917;-82
2022/10/02 12:45:20;;;;;;;;;;;;;;;;;;5056996;28;19917;-82
2022/10/02 12:47:52;;;;;;;;;;;;;;;;;;5074662;28;19917;-82
2022/10/02 12:50:22;;;;;;;;;;;;;;;;;;5056981;28;20033;-83
2022/10/02 12:53:01;;;;;;;;;;;;;;;;;;5056993;28;20050;-83
2022/10/02 12:55:41;;;;;;;;;;;;;;;;;;5074972;28;19924;-83
2022/10/02 12:58:25;;;;;;;;;;;;;;;;;;5083732;28;19920;-83
2022/10/02 13:01:08;;;;;;;;;;;;;;;;;;5094906;28;19923;-83
2022/10/02 13:03:56;;;;;;;;;;;;;;;;;;5077180;28;20002;-83
2022/10/02 13:06:41;;;;;;;;;;;;;;;;;;5095046;28;19980;-83
2022/10/02 13:09:22;;;;;;;;;;;;;;;;;;5094873;28;20318;-83
2022/10/02 13:11:51;;;;;;;;;;;;;;;;;;5095094;28;20295;-83
2022/10/02 13:14:28;;;;;;;;;;;;;;;;;;5094604;28;19916;-84
2022/10/02 13:17:04;;;;;;;;;;;;;;;;;;5094779;28;20011;-82
2022/10/02 13:19:48;;;;;;;;;;;;;;;;;;5076874;28;20016;-83
2022/10/02 13:22:43;;;;;;;;;;;;;;;;;;5094726;28;19920;-83
2022/10/02 13:25:17;;;;;;;;;;;;;;;;;;5081029;28;20322;-84
2022/10/02 13:27:48;;;;;;;;;;;;;;;;;;5076781;28;19916;-82
2022/10/02 13:30:13;;;;;;;;;;;;;;;;;;5076896;28;19912;-82
2022/10/02 13:33:04;;;;;;;;;;;;;;;;;;5094502;28;19916;-83
2022/10/02 13:35:36;;;;;;;;;;;;;;;;;;5076859;28;19912;-82
2022/10/02 13:38:16;;;;;;;;;;;;;;;;;;5092880;28;20291;-83
2022/10/02 13:41:00;;;;;;;;;;;;;;;;;;5094653;28;19922;-83
2022/10/02 13:43:39;;;;;;;;;;;;;;;;;;5075875;28;19998;-83
2022/10/02 13:46:24;;;;;;;;;;;;;;;;;;5076670;28;20350;-84
2022/10/02 13:48:55;;;;;;;;;;;;;;;;;;5095319;28;19918;-82
2022/10/02 13:51:22;;;;;;;;;;;;;;;;;;5094203;28;19916;-82
2022/10/02 13:53:55;;;;;;;;;;;;;;;;;;5076081;28;19916;-83
2022/10/02 13:56:27;;;;;;;;;;;;;;;;;;5094223;28;19916;-84
2022/10/02 13:59:11;;;;;;;;;;;;;;;;;;5060306;28;19920;-83
2022/10/02 14:01:40;;;;;;;;;;;;;;;;;;5074024;28;19917;-84
2022/10/02 14:04:06;;;;;;;;;;;;;;;;;;5056554;28;19925;-84
2022/10/02 14:06:31;;;;;;;;;;;;;;;;;;5074458;28;19916;-82
2022/10/02 14:08:59;;;;;;;;;;;;;;;;;;5074214;28;20290;-84
2022/10/02 14:11:27;;;;;;;;;;;;;;;;;;5074304;28;19916;-83
2022/10/02 14:14:02;;;;;;;;;;;;;;;;;;5074587;28;19912;-83
2022/10/02 14:16:33;;;;;;;;;;;;;;;;;;5066170;28;19944;-81
2022/10/02 14:19:05;;;;;;;;;;;;;;;;;;5082036;28;19924;-83
2022/10/02 14:21:35;;;;;;;;;;;;;;;;;;5064055;28;19916;-81
2022/10/02 14:24:14;;;;;;;;;;;;;;;;;;5053486;28;19916;-83
2022/10/02 14:26:57;;;;;;;;;;;;;;;;;;5065992;28;19956;-85
2022/10/02 14:29:25;;;;;;;;;;;;;;;;;;5073779;28;19920;-82
2022/10/02 14:32:11;;;;;;;;;;;;;;;;;;5073620;28;19916;-84
2022/10/02 14:34:49;;;;;;;;;;;;;;;;;;5038043;28;19916;-84
2022/10/02 14:37:41;;;;;;;;;;;;;;;;;;5055976;28;20464;-84
2022/10/02 14:40:11;;;;;;;;;;;;;;;;;;5055314;28;19916;-84
2022/10/02 14:42:41;;;;;;;;;;;;;;;;;;5055564;28;20049;-85
2022/10/02 14:45:18;;;;;;;;;;;;;;;;;;5055415;28;19940;-84
2022/10/02 14:47:43;;;;;;;;;;;;;;;;;;5055067;28;19912;-85
2022/10/02 14:50:26;;;;;;;;;;;;;;;;;;5072595;28;20348;-85
2022/10/02 14:53:10;;;;;;;;;;;;;;;;;;5072831;28;19912;-85
2022/10/02 14:55:48;;;;;;;;;;;;;;;;;;5071976;28;19952;-84
2022/10/02 14:58:13;;;;;;;;;;;;;;;;;;5092460;28;20313;-83
2022/10/02 15:00:41;;;;;;;;;;;;;;;;;;5093674;28;19983;-84
2022/10/02 15:03:26;;;;;;;;;;;;;;;;;;5088305;28;19959;-85
2022/10/02 15:06:07;;;;;;;;;;;;;;;;;;5112976;28;19973;-85
2022/10/02 15:08:37;;;;;;;;;;;;;;;;;;5112185;28;19916;-85
2022/10/02 15:11:03;;;;;;;;;;;;;;;;;;5114371;28;20335;-85
2022/10/02 15:13:31;;;;;;;;;;;;;;;;;;5114999;28;19916;-84
2022/10/02 15:18:45;;;;;;;;;;;;;;;;;;5114739;28;19962;-84
2022/10/02 15:21:25;;;;;;;;;;;;;;;;;;5116620;28;19955;-86
2022/10/02 15:23:51;;;;;;;;;;;;;;;;;;5099193;28;19916;-84
2022/10/02 15:26:20;;;;;;;;;;;;;;;;;;5115975;28;19972;-83
2022/10/02 15:29:04;;;;;;;;;;;;;;;;;;5115976;28;19915;-84
2022/10/02 15:31:35;;;;;;;;;;;;;;;;;;5117136;28;19939;-85
2022/10/02 15:34:03;;;;;;;;;;;;;;;;;;5116926;28;20337;-84
2022/10/02 15:36:47;;;;;;;;;;;;;;;;;;5116756;28;19916;-82
2022/10/02 15:39:19;;;;;;;;;;;;;;;;;;5116258;28;19958;-82
2022/10/02 15:41:46;;;;;;;;;;;;;;;;;;5098557;28;19916;-82
2022/10/02 15:44:14;;;;;;;;;;;;;;;;;;5098830;28;19915;-86
2022/10/02 15:47:18;;;;;;;;;;;;;;;;;;5118554;28;19916;-84
2022/10/02 15:49:53;;;;;;;;;;;;;;;;;;5033657;28;19928;-83
2022/10/02 15:52:25;;;;;;;;;;;;;;;;;;5032392;28;19921;-84
2022/10/02 15:54:53;;;;;;;;;;;;;;;;;;5061524;28;19912;-84
2022/10/02 15:57:34;;;;;;;;;;;;;;;;;;5096875;28;19915;-83
2022/10/02 16:00:02;;;;;;;;;;;;;;;;;;5115439;28;19920;-85
2022/10/02 16:02:34;;;;;;;;;;;;;;;;;;5115085;28;20020;-85
2022/10/02 16:05:19;;;;;;;;;;;;;;;;;;5114080;28;19954;-85
2022/10/02 16:07:53;;;;;;;;;;;;;;;;;;5097190;28;20049;-84
2022/10/02 16:10:25;;;;;;;;;;;;;;;;;;5114235;28;19916;-86
2022/10/02 16:13:06;;;;;;;;;;;;;;;;;;5097006;28;20003;-83
2022/10/02 16:15:34;;;;;;;;;;;;;;;;;;5115058;28;20302;-82
2022/10/02 16:18:18;;;;;;;;;;;;;;;;;;5115832;28;19915;-83
2022/10/02 16:20:50;;;;;;;;;;;;;;;;;;5115886;28;20233;-82
2022/10/02 16:23:18;;;;;;;;;;;;;;;;;;5115742;28;19915;-83
2022/10/02 16:25:53;;;;;;;;;;;;;;;;;;5097830;28;19923;-82
2022/10/02 16:28:30;;;;;;;;;;;;;;;;;;5115880;28;19920;-83
2022/10/02 16:31:09;;;;;;;;;;;;;;;;;;5115798;28;19916;-84
2022/10/02 16:33:53;;;;;;;;;;;;;;;;;;5115499;28;19916;-84
2022/10/02 16:36:28;;;;;;;;;;;;;;;;;;5114796;28;19916;-83
2022/10/02 16:39:09;;;;;;;;;;;;;;;;;;5098015;28;19951;-83
2022/10/02 16:42:01;;;;;;;;;;;;;;;;;;5097310;28;19954;-84
2022/10/02 16:44:46;;;;;;;;;;;;;;;;;;5111389;28;19965;-83
2022/10/02 16:47:11;;;;;;;;;;;;;;;;;;5115568;28;19923;-83
2022/10/02 16:49:44;;;;;;;;;;;;;;;;;;5115671;28;20002;-84
2022/10/02 16:52:22;;;;;;;;;;;;;;;;;;5113693;28;20006;-84
2022/10/02 16:54:49;;;;;;;;;;;;;;;;;;5095609;28;20305;-83
2022/10/02 16:57:34;;;;;;;;;;;;;;;;;;5112244;28;19916;-84
2022/10/02 17:00:07;;;;;;;;;;;;;;;;;;5114297;28;20006;-83
2022/10/02 17:02:36;;;;;;;;;;;;;;;;;;5113241;28;20051;-83
2022/10/02 17:05:04;;;;;;;;;;;;;;;;;;5095067;28;19916;-84
2022/10/02 17:07:48;;;;;;;;;;;;;;;;;;5113157;28;19916;-83
2022/10/02 17:10:23;;;;;;;;;;;;;;;;;;5097076;28;20412;-84
2022/10/02 17:13:25;;;;;;;;;;;;;;;;;;5095907;28;19923;-84
2022/10/02 17:15:57;;;;;;;;;;;;;;;;;;5030814;28;19917;-83
2022/10/02 17:18:25;;;;;;;;;;;;;;;;;;5100191;28;19923;-83
2022/10/02 17:20:52;;;;;;;;;;;;;;;;;;5111858;28;19915;-84
2022/10/02 17:23:21;;;;;;;;;;;;;;;;;;5113584;28;20386;-84
2022/10/02 17:26:07;;;;;;;;;;;;;;;;;;5112257;28;19915;-83
2022/10/02 17:28:36;;;;;;;;;;;;;;;;;;5114187;28;19980;-84
2022/10/02 17:31:10;;;;;;;;;;;;;;;;;;5106484;28;19916;-84
2022/10/02 17:33:43;;;;;;;;;;;;;;;;;;5094999;28;19965;-84
2022/10/02 17:36:14;;;;;;;;;;;;;;;;;;5076133;28;19916;-84
2022/10/02 17:38:51;;;;;;;;;;;;;;;;;;5084371;28;19938;-83